createdAt,value
2019-04-06T00:02:43.329Z,17.27
2019-04-06T00:07:37.290Z,16.13
2019-04-06T00:12:31.242Z,15.00
2019-04-06T00:17:25.358Z,15.50
2019-04-06T00:22:19.376Z,15.93
2019-04-06T00:27:13.467Z,15.53
2019-04-06T00:32:21.420Z,15.43
2019-04-06T00:37:15.492Z,14.87
2019-04-06T00:42:09.464Z,14.57
2019-04-06T00:47:03.549Z,13.77
2019-04-06T00:51:57.514Z,14.07
2019-04-06T00:56:51.489Z,14.50
2019-04-06T01:01:45.594Z,14.33
2019-04-06T01:06:39.572Z,13.67
2019-04-06T01:11:33.535Z,14.33
2019-04-06T01:16:27.602Z,13.67
2019-04-06T01:21:21.703Z,14.67
2019-04-06T01:26:15.675Z,14.83
2019-04-06T01:31:09.641Z,14.27
2019-04-06T01:36:03.612Z,14.97
2019-04-06T01:40:57.844Z,14.73
2019-04-06T01:45:51.878Z,14.60
2019-04-06T01:50:45.989Z,14.93
2019-04-06T01:55:39.910Z,14.97
2019-04-06T02:00:33.979Z,14.87
2019-04-06T02:05:27.958Z,14.97
2019-04-06T02:10:22.173Z,14.87
2019-04-06T02:15:16.399Z,14.97
2019-04-06T02:20:10.663Z,14.50
2019-04-06T02:25:05.065Z,14.80
2019-04-06T02:30:09.831Z,14.10
2019-04-06T02:35:23.731Z,14.60
2019-04-06T02:40:34.774Z,14.83
2019-04-06T02:45:28.880Z,14.17
2019-04-06T02:50:23.135Z,14.80
2019-04-06T02:55:17.289Z,14.60
2019-04-06T03:00:11.676Z,14.90
2019-04-06T03:05:05.836Z,15.10
2019-04-06T03:09:59.813Z,14.47
2019-04-06T03:14:53.817Z,14.63
2019-04-06T03:19:47.782Z,15.00
2019-04-06T03:24:41.739Z,15.03
2019-04-06T03:29:35.718Z,14.87
2019-04-06T03:34:29.927Z,15.13
2019-04-06T03:39:24.115Z,14.40
2019-04-06T03:44:18.077Z,15.73
2019-04-06T03:49:12.060Z,15.33
2019-04-06T03:54:06.024Z,15.60
2019-04-06T03:58:59.993Z,14.77
2019-04-06T04:03:53.960Z,15.13
2019-04-06T04:08:47.928Z,16.33
2019-04-06T04:13:42.088Z,14.50
2019-04-06T04:18:36.043Z,15.20
2019-04-06T04:23:30.038Z,15.07
2019-04-06T04:28:24.006Z,15.63
2019-04-06T04:33:18.120Z,14.97
2019-04-06T04:38:12.207Z,16.47
2019-04-06T04:43:06.115Z,16.10
2019-04-06T04:48:00.249Z,16.10
2019-04-06T04:52:54.254Z,15.77
2019-04-06T04:57:48.213Z,16.27
2019-04-06T05:02:42.172Z,17.70
2019-04-06T05:07:36.183Z,17.47
2019-04-06T05:12:30.258Z,16.43
2019-04-06T05:17:24.816Z,17.40
2019-04-06T05:22:18.798Z,17.43
2019-04-06T05:27:12.898Z,17.27
2019-04-06T05:32:06.990Z,17.23
2019-04-06T05:37:01.009Z,16.93
2019-04-06T05:41:55.046Z,17.57
2019-04-06T05:46:49.640Z,18.20
2019-04-06T05:51:43.769Z,16.63
2019-04-06T05:56:37.717Z,17.70
2019-04-06T06:01:31.806Z,17.13
2019-04-06T06:06:25.894Z,17.03
2019-04-06T06:11:19.857Z,16.37
2019-04-06T06:16:13.970Z,16.60
2019-04-06T06:21:07.957Z,17.27
2019-04-06T06:26:02.530Z,16.40
2019-04-06T06:30:56.625Z,17.00
2019-04-06T06:35:50.729Z,17.23
2019-04-06T06:40:44.653Z,17.73
2019-04-06T06:45:38.752Z,17.23
2019-04-06T06:50:34.580Z,17.33
2019-04-06T06:55:28.700Z,17.20
2019-04-06T07:00:22.699Z,17.77
2019-04-06T07:05:16.841Z,16.77
2019-04-06T07:10:11.146Z,18.33
2019-04-06T07:15:05.650Z,16.50
2019-04-06T07:19:59.640Z,17.27
2019-04-06T07:24:53.880Z,17.43
2019-04-06T07:29:47.929Z,17.33
2019-04-06T07:34:41.919Z,17.67
2019-04-06T07:39:36.271Z,17.90
2019-04-06T07:44:30.267Z,17.57
2019-04-06T07:49:24.723Z,17.70
2019-04-06T07:54:18.696Z,17.87
2019-04-06T07:59:12.687Z,17.60
2019-04-06T08:04:08.457Z,17.40
2019-04-06T08:09:05.613Z,17.50
2019-04-06T08:13:59.662Z,17.57
2019-04-06T08:18:53.632Z,18.47
2019-04-06T08:23:47.656Z,18.93
2019-04-06T08:28:41.670Z,18.37
2019-04-06T08:33:35.631Z,17.43
2019-04-06T08:38:29.705Z,19.90
2019-04-06T08:43:23.674Z,19.50
2019-04-06T08:48:17.703Z,24.67
2019-04-06T08:53:11.671Z,18.10
2019-04-06T08:58:05.850Z,19.10
2019-04-06T09:02:59.977Z,19.17
2019-04-06T09:07:53.933Z,18.73
2019-04-06T09:12:47.907Z,17.82
2019-04-06T09:17:42.033Z,19.02
2019-04-06T09:22:36.073Z,17.90
2019-04-06T09:27:30.141Z,18.05
2019-04-06T09:32:24.350Z,17.92
2019-04-06T09:37:18.307Z,18.00
2019-04-06T09:42:12.468Z,17.70
2019-04-06T09:47:08.405Z,17.70
2019-04-06T09:52:04.647Z,17.70
2019-04-06T09:57:00.554Z,18.17
2019-04-06T10:02:05.876Z,17.65
2019-04-06T10:07:07.870Z,17.95
2019-04-06T10:12:20.496Z,18.00
2019-04-06T10:17:19.391Z,20.50
2019-04-06T10:22:24.462Z,19.35
2019-04-06T10:27:32.205Z,17.98
2019-04-06T10:32:28.247Z,17.73
2019-04-06T10:37:36.443Z,18.05
2019-04-06T10:42:38.095Z,17.70
2019-04-06T10:47:40.385Z,17.40
2019-04-06T10:52:54.576Z,16.65
2019-04-06T10:57:50.455Z,16.50
2019-04-06T11:03:01.339Z,17.07
2019-04-06T11:08:13.906Z,19.02
2019-04-06T11:13:15.828Z,16.80
2019-04-06T11:18:11.750Z,17.10
2019-04-06T11:23:13.243Z,16.25
2019-04-06T11:28:18.169Z,17.85
2019-04-06T11:33:17.298Z,16.97
2019-04-06T11:38:16.051Z,16.37
2019-04-06T11:43:14.675Z,16.30
2019-04-06T11:48:22.736Z,16.87
2019-04-06T11:53:18.830Z,16.23
2019-04-06T11:58:27.082Z,18.32
2019-04-06T12:03:23.161Z,19.02
2019-04-06T12:08:19.167Z,15.43
2019-04-06T12:13:27.265Z,15.23
2019-04-06T12:18:32.159Z,15.72
2019-04-06T12:23:28.431Z,15.13
2019-04-06T12:28:24.459Z,15.63
2019-04-06T12:33:26.294Z,15.90
2019-04-06T12:38:24.750Z,15.72
2019-04-06T12:43:23.325Z,13.93
2019-04-06T12:48:34.903Z,15.88
2019-04-06T12:53:33.668Z,14.25
2019-04-06T12:58:46.359Z,13.93
2019-04-06T13:03:48.440Z,13.43
2019-04-06T13:08:44.435Z,13.62
2019-04-06T13:13:40.401Z,14.20
2019-04-06T13:18:42.595Z,14.03
2019-04-06T13:23:41.464Z,13.78
2019-04-06T13:28:46.182Z,13.50
2019-04-06T13:33:51.110Z,14.35
2019-04-06T13:38:50.031Z,15.38
2019-04-06T13:43:58.168Z,15.18
2019-04-06T13:48:54.396Z,14.63
2019-04-06T13:53:50.377Z,14.43
2019-04-06T13:59:01.677Z,13.35
2019-04-06T14:03:58.128Z,14.00
2019-04-06T14:09:09.025Z,14.23
2019-04-06T14:14:14.094Z,14.63
2019-04-06T14:19:10.084Z,13.70
2019-04-06T14:24:14.790Z,14.45
2019-04-06T14:29:19.730Z,14.60
2019-04-06T14:34:32.858Z,15.35
2019-04-06T14:39:41.079Z,14.15
2019-04-06T14:44:54.257Z,16.20
2019-04-06T14:49:53.365Z,14.43
2019-04-06T14:54:55.620Z,15.08
2019-04-06T15:00:09.021Z,17.00
2019-04-06T15:05:13.267Z,14.63
2019-04-06T15:10:09.249Z,14.25
2019-04-06T15:15:07.219Z,14.20
2019-04-06T15:20:09.206Z,13.28
2019-04-06T15:25:23.729Z,13.65
2019-04-06T15:30:29.100Z,13.35
2019-04-06T15:35:27.990Z,12.95
2019-04-06T15:40:23.884Z,13.00
2019-04-06T15:45:31.724Z,12.88
2019-04-06T15:50:30.542Z,12.88
2019-04-06T15:55:29.474Z,12.73
2019-04-06T16:00:34.516Z,12.18
2019-04-06T16:05:33.490Z,13.93
2019-04-06T16:10:29.614Z,12.13
2019-04-06T16:15:35.225Z,12.03
2019-04-06T16:20:33.892Z,12.20
2019-04-06T16:25:32.539Z,12.65
2019-04-06T16:30:37.449Z,12.53
2019-04-06T16:35:36.189Z,12.70
2019-04-06T16:40:32.212Z,13.05
2019-04-06T16:45:43.361Z,12.18
2019-04-06T16:50:55.606Z,12.70
2019-04-06T16:55:51.606Z,12.70
2019-04-06T17:00:59.663Z,12.68
2019-04-06T17:06:07.593Z,13.50
2019-04-06T17:11:06.265Z,13.35
2019-04-06T17:16:02.117Z,13.90
2019-04-06T17:21:03.810Z,17.35
2019-04-06T17:26:11.921Z,16.82
2019-04-06T17:31:17.348Z,13.53
2019-04-06T17:36:30.019Z,14.85
2019-04-06T17:41:34.747Z,18.05
2019-04-06T17:46:39.887Z,21.12
2019-04-06T17:51:36.161Z,24.70
2019-04-06T17:56:48.018Z,23.38
2019-04-06T18:01:59.126Z,19.77
2019-04-06T18:06:55.164Z,14.83
2019-04-06T18:11:54.184Z,14.77
2019-04-06T18:16:48.370Z,13.43
2019-04-06T18:21:42.511Z,13.70
2019-04-06T18:26:36.713Z,14.43
2019-04-06T18:31:38.438Z,15.07
2019-04-06T18:36:43.393Z,15.32
2019-04-06T18:41:37.336Z,13.80
2019-04-06T18:46:31.588Z,13.43
2019-04-06T18:51:25.930Z,13.47
2019-04-06T18:56:20.050Z,14.17
2019-04-06T19:01:14.523Z,14.23
2019-04-06T19:06:08.677Z,14.30
2019-04-06T19:11:02.834Z,14.00
2019-04-06T19:15:56.868Z,13.80
2019-04-06T19:20:51.031Z,14.23
2019-04-06T19:25:45.811Z,15.40
2019-04-06T19:30:39.873Z,15.40
2019-04-06T19:35:33.971Z,14.87
2019-04-06T19:40:28.132Z,14.30
2019-04-06T19:45:22.345Z,14.87
2019-04-06T19:50:16.433Z,14.70
2019-04-06T19:55:11.036Z,15.30
2019-04-06T20:00:05.849Z,15.47
2019-04-06T20:04:59.872Z,15.40
2019-04-06T20:09:53.947Z,16.47
2019-04-06T20:14:48.374Z,16.93
2019-04-06T20:19:42.846Z,18.43
2019-04-06T20:24:37.362Z,18.50
2019-04-06T20:29:31.623Z,17.00
2019-04-06T20:34:26.152Z,17.97
2019-04-06T20:39:20.753Z,17.63
2019-04-06T20:44:14.778Z,17.90
2019-04-06T20:49:09.314Z,18.23
2019-04-06T20:54:03.472Z,19.00
2019-04-06T20:58:57.565Z,19.10
2019-04-06T21:04:00.222Z,18.07
2019-04-06T21:08:48.029Z,19.07
2019-04-06T21:13:42.358Z,18.17
2019-04-06T21:18:36.711Z,20.40
2019-04-06T21:23:31.308Z,21.03
2019-04-06T21:28:25.626Z,20.03
2019-04-06T21:33:19.830Z,20.57
2019-04-06T21:38:13.764Z,21.33
2019-04-06T21:47:36.001Z,22.60
2019-04-06T21:52:30.025Z,22.33
2019-04-06T21:57:24.604Z,21.40
2019-04-06T22:02:19.311Z,22.53
2019-04-06T22:07:14.165Z,22.47
2019-04-06T22:12:08.238Z,22.43
2019-04-06T22:17:02.763Z,23.80
2019-04-06T22:21:56.855Z,23.33
2019-04-06T22:26:50.830Z,23.47
2019-04-06T22:31:45.028Z,23.37
2019-04-06T22:36:39.111Z,26.77
2019-04-06T22:41:33.205Z,31.40
2019-04-06T22:46:27.257Z,26.47
2019-04-06T22:51:21.887Z,26.33
2019-04-06T22:56:16.669Z,25.53
2019-04-06T23:01:12.912Z,25.10
2019-04-06T23:06:15.335Z,25.03
2019-04-06T23:11:09.570Z,26.67
2019-04-06T23:16:03.539Z,24.77
2019-04-06T23:20:57.600Z,27.67
2019-04-06T23:25:51.861Z,28.97
2019-04-06T23:30:46.163Z,28.77
2019-04-06T23:35:40.114Z,27.43
2019-04-06T23:40:34.519Z,28.37
2019-04-06T23:45:28.808Z,28.60
2019-04-06T23:50:22.875Z,28.30
2019-04-06T23:55:16.962Z,27.10
